sensor_id;sensor_type;location;lat;lon;timestamp;pressure;altitude;pressure_sealevel;temperature;humidity
71735;BME280;59577;52.122;5.406;2023-04-26T00:01:32;102031.53;;;4.05;80.96
71735;BME280;59577;52.122;5.406;2023-04-26T00:04:00;102031.84;;;4.03;81.13
71735;BME280;59577;52.122;5.406;2023-04-26T00:06:28;102029.72;;;4.00;81.04
71735;BME280;59577;52.122;5.406;2023-04-26T00:08:55;102031.88;;;3.98;81.03
71735;BME280;59577;52.122;5.406;2023-04-26T00:11:21;102035.63;;;3.97;81.51
71735;BME280;59577;52.122;5.406;2023-04-26T00:13:48;102033.22;;;3.95;81.55
71735;BME280;59577;52.122;5.406;2023-04-26T00:16:14;102034.34;;;3.89;81.20
71735;BME280;59577;52.122;5.406;2023-04-26T00:18:41;102033.53;;;3.84;81.77
71735;BME280;59577;52.122;5.406;2023-04-26T00:21:08;102034.94;;;3.76;82.04
71735;BME280;59577;52.122;5.406;2023-04-26T00:23:35;102034.44;;;3.69;81.64
71735;BME280;59577;52.122;5.406;2023-04-26T00:26:02;102031.53;;;3.60;82.52
71735;BME280;59577;52.122;5.406;2023-04-26T00:28:28;102034.75;;;3.52;82.57
71735;BME280;59577;52.122;5.406;2023-04-26T00:30:55;102030.75;;;3.49;82.68
71735;BME280;59577;52.122;5.406;2023-04-26T00:33:23;102027.84;;;3.41;83.26
71735;BME280;59577;52.122;5.406;2023-04-26T00:35:50;102027.31;;;3.33;83.26
71735;BME280;59577;52.122;5.406;2023-04-26T00:38:16;102022.25;;;3.27;83.03
71735;BME280;59577;52.122;5.406;2023-04-26T00:40:43;102027.63;;;3.22;83.08
71735;BME280;59577;52.122;5.406;2023-04-26T00:43:09;102025.22;;;3.15;82.95
71735;BME280;59577;52.122;5.406;2023-04-26T00:45:36;102015.63;;;3.09;83.36
71735;BME280;59577;52.122;5.406;2023-04-26T00:48:03;102020.72;;;3.00;82.90
71735;BME280;59577;52.122;5.406;2023-04-26T00:50:30;102017.53;;;2.93;82.89
71735;BME280;59577;52.122;5.406;2023-04-26T00:52:57;102017.03;;;2.80;83.20
71735;BME280;59577;52.122;5.406;2023-04-26T00:55:24;102018.09;;;2.79;83.09
71735;BME280;59577;52.122;5.406;2023-04-26T00:57:58;102014.63;;;2.79;83.46
71735;BME280;59577;52.122;5.406;2023-04-26T01:00:25;102018.34;;;2.83;83.57
71735;BME280;59577;52.122;5.406;2023-04-26T01:02:51;102017.28;;;2.84;83.67
71735;BME280;59577;52.122;5.406;2023-04-26T01:05:18;102013.25;;;2.81;83.45
71735;BME280;59577;52.122;5.406;2023-04-26T01:07:45;102025.31;;;2.84;83.40
71735;BME280;59577;52.122;5.406;2023-04-26T01:10:11;102022.38;;;2.75;83.31
71735;BME280;59577;52.122;5.406;2023-04-26T01:12:38;102026.38;;;2.73;83.33
71735;BME280;59577;52.122;5.406;2023-04-26T01:15:05;102026.38;;;2.68;83.28
71735;BME280;59577;52.122;5.406;2023-04-26T01:17:32;102030.94;;;2.57;83.31
71735;BME280;59577;52.122;5.406;2023-04-26T01:19:59;102031.19;;;2.50;83.39
71735;BME280;59577;52.122;5.406;2023-04-26T01:22:28;102033.34;;;2.43;83.52
71735;BME280;59577;52.122;5.406;2023-04-26T01:24:55;102038.94;;;2.41;83.53
71735;BME280;59577;52.122;5.406;2023-04-26T01:27:23;102039.72;;;2.42;83.79
71735;BME280;59577;52.122;5.406;2023-04-26T01:29:49;102036.28;;;2.41;84.08
71735;BME280;59577;52.122;5.406;2023-04-26T01:32:16;102035.75;;;2.44;83.78
71735;BME280;59577;52.122;5.406;2023-04-26T01:34:42;102041.09;;;2.50;84.30
71735;BME280;59577;52.122;5.406;2023-04-26T01:37:09;102041.63;;;2.52;83.89
71735;BME280;59577;52.122;5.406;2023-04-26T01:39:46;102037.91;;;2.53;83.83
71735;BME280;59577;52.122;5.406;2023-04-26T01:42:13;102045.34;;;2.56;84.16
71735;BME280;59577;52.122;5.406;2023-04-26T01:44:40;102045.63;;;2.54;84.05
71735;BME280;59577;52.122;5.406;2023-04-26T01:47:06;102037.91;;;2.53;84.33
71735;BME280;59577;52.122;5.406;2023-04-26T01:49:33;102032.53;;;2.48;84.25
71735;BME280;59577;52.122;5.406;2023-04-26T01:52:00;102026.63;;;2.40;84.53
71735;BME280;59577;52.122;5.406;2023-04-26T01:54:27;102027.72;;;2.34;84.50
71735;BME280;59577;52.122;5.406;2023-04-26T01:56:53;102029.03;;;2.26;84.44
71735;BME280;59577;52.122;5.406;2023-04-26T01:59:20;102025.56;;;2.16;84.35
71735;BME280;59577;52.122;5.406;2023-04-26T02:01:46;102021.81;;;2.06;84.23
71735;BME280;59577;52.122;5.406;2023-04-26T02:04:13;102019.66;;;2.03;84.48
71735;BME280;59577;52.122;5.406;2023-04-26T02:06:40;102024.47;;;2.01;84.36
71735;BME280;59577;52.122;5.406;2023-04-26T02:09:07;102025.53;;;2.00;84.29
71735;BME280;59577;52.122;5.406;2023-04-26T02:11:36;102022.31;;;1.98;84.18
71735;BME280;59577;52.122;5.406;2023-04-26T02:14:03;102023.91;;;1.89;84.43
71735;BME280;59577;52.122;5.406;2023-04-26T02:16:29;102022.53;;;1.81;84.10
71735;BME280;59577;52.122;5.406;2023-04-26T02:18:56;102024.44;;;1.86;84.60
71735;BME280;59577;52.122;5.406;2023-04-26T02:21:24;102022.81;;;1.90;84.76
71735;BME280;59577;52.122;5.406;2023-04-26T02:23:52;102027.09;;;1.86;84.77
71735;BME280;59577;52.122;5.406;2023-04-26T02:26:18;102028.97;;;1.85;85.25
71735;BME280;59577;52.122;5.406;2023-04-26T02:28:45;102023.09;;;1.78;84.87
71735;BME280;59577;52.122;5.406;2023-04-26T02:31:11;102028.69;;;1.77;84.68
71735;BME280;59577;52.122;5.406;2023-04-26T02:33:38;102025.75;;;1.73;84.96
71735;BME280;59577;52.122;5.406;2023-04-26T02:36:05;102035.56;;;1.67;85.00
71735;BME280;59577;52.122;5.406;2023-04-26T02:38:34;102036.41;;;1.68;85.21
71735;BME280;59577;52.122;5.406;2023-04-26T02:41:02;102034.72;;;1.57;84.96
71735;BME280;59577;52.122;5.406;2023-04-26T02:43:29;102021.38;;;1.52;84.92
71735;BME280;59577;52.122;5.406;2023-04-26T02:45:56;102038.44;;;1.50;84.93
71735;BME280;59577;52.122;5.406;2023-04-26T02:48:24;102025.38;;;1.49;85.31
71735;BME280;59577;52.122;5.406;2023-04-26T02:50:51;102028.84;;;1.49;85.76
71735;BME280;59577;52.122;5.406;2023-04-26T02:53:17;102032.03;;;1.52;85.50
71735;BME280;59577;52.122;5.406;2023-04-26T02:55:44;102025.34;;;1.44;85.79
71735;BME280;59577;52.122;5.406;2023-04-26T02:58:11;102027.75;;;1.40;85.43
71735;BME280;59577;52.122;5.406;2023-04-26T03:00:38;102024.28;;;1.45;85.72
71735;BME280;59577;52.122;5.406;2023-04-26T03:03:05;102026.16;;;1.44;85.60
71735;BME280;59577;52.122;5.406;2023-04-26T03:05:32;102020.53;;;1.41;85.68
71735;BME280;59577;52.122;5.406;2023-04-26T03:07:58;102013.84;;;1.38;85.44
71735;BME280;59577;52.122;5.406;2023-04-26T03:10:25;102015.44;;;1.34;85.72
71735;BME280;59577;52.122;5.406;2023-04-26T03:12:55;102016.44;;;1.28;85.48
71735;BME280;59577;52.122;5.406;2023-04-26T03:15:22;102017.78;;;1.25;86.07
71735;BME280;59577;52.122;5.406;2023-04-26T03:17:50;102017.81;;;1.30;86.24
71735;BME280;59577;52.122;5.406;2023-04-26T03:20:17;102018.88;;;1.29;86.22
71735;BME280;59577;52.122;5.406;2023-04-26T03:22:44;102015.16;;;1.36;86.51
71735;BME280;59577;52.122;5.406;2023-04-26T03:25:11;102019.44;;;1.42;86.33
71735;BME280;59577;52.122;5.406;2023-04-26T03:27:38;102022.94;;;1.42;86.24
71735;BME280;59577;52.122;5.406;2023-04-26T03:30:05;102016.78;;;1.42;85.99
71735;BME280;59577;52.122;5.406;2023-04-26T03:32:32;102015.19;;;1.41;85.60
71735;BME280;59577;52.122;5.406;2023-04-26T03:34:59;102017.84;;;1.36;86.05
71735;BME280;59577;52.122;5.406;2023-04-26T03:37:25;102011.44;;;1.31;85.99
71735;BME280;59577;52.122;5.406;2023-04-26T03:39:52;102017.50;;;1.22;85.94
71735;BME280;59577;52.122;5.406;2023-04-26T03:42:19;102012.44;;;1.20;85.72
71735;BME280;59577;52.122;5.406;2023-04-26T03:44:51;102010.28;;;1.17;85.76
71735;BME280;59577;52.122;5.406;2023-04-26T03:47:18;102016.41;;;1.18;85.95
71735;BME280;59577;52.122;5.406;2023-04-26T03:49:44;102009.47;;;1.17;86.30
71735;BME280;59577;52.122;5.406;2023-04-26T03:52:14;102014.00;;;1.16;86.11
71735;BME280;59577;52.122;5.406;2023-04-26T03:54:40;102016.13;;;1.14;86.11
71735;BME280;59577;52.122;5.406;2023-04-26T03:57:07;102016.09;;;1.09;86.30
71735;BME280;59577;52.122;5.406;2023-04-26T03:59:33;102013.69;;;1.07;86.34
71735;BME280;59577;52.122;5.406;2023-04-26T04:02:00;102017.66;;;1.05;86.49
71735;BME280;59577;52.122;5.406;2023-04-26T04:04:26;102014.22;;;1.04;86.62
71735;BME280;59577;52.122;5.406;2023-04-26T04:06:53;102015.53;;;1.07;86.79
71735;BME280;59577;52.122;5.406;2023-04-26T04:09:20;102012.88;;;1.07;86.86
71735;BME280;59577;52.122;5.406;2023-04-26T04:11:46;102017.41;;;1.06;86.92
71735;BME280;59577;52.122;5.406;2023-04-26T04:14:13;102012.34;;;1.05;86.67
71735;BME280;59577;52.122;5.406;2023-04-26T04:16:39;102013.38;;;0.99;86.73
71735;BME280;59577;52.122;5.406;2023-04-26T04:19:06;102010.69;;;0.93;86.44
71735;BME280;59577;52.122;5.406;2023-04-26T04:21:33;102012.00;;;0.91;86.26
71735;BME280;59577;52.122;5.406;2023-04-26T04:24:00;102010.16;;;0.97;86.47
71735;BME280;59577;52.122;5.406;2023-04-26T04:26:26;102011.00;;;1.02;86.89
71735;BME280;59577;52.122;5.406;2023-04-26T04:28:56;102006.19;;;0.99;86.97
71735;BME280;59577;52.122;5.406;2023-04-26T04:31:23;102007.75;;;0.95;86.60
71735;BME280;59577;52.122;5.406;2023-04-26T04:33:53;102008.59;;;1.01;86.59
71735;BME280;59577;52.122;5.406;2023-04-26T04:36:19;102009.44;;;1.11;86.76
71735;BME280;59577;52.122;5.406;2023-04-26T04:38:45;102014.03;;;1.21;87.29
71735;BME280;59577;52.122;5.406;2023-04-26T04:41:12;102009.56;;;1.32;87.00
71735;BME280;59577;52.122;5.406;2023-04-26T04:43:39;102009.31;;;1.34;86.70
71735;BME280;59577;52.122;5.406;2023-04-26T04:46:07;102013.03;;;1.33;86.56
71735;BME280;59577;52.122;5.406;2023-04-26T04:48:36;102011.72;;;1.35;86.24
71735;BME280;59577;52.122;5.406;2023-04-26T04:51:03;102013.06;;;1.43;86.56
71735;BME280;59577;52.122;5.406;2023-04-26T04:53:30;102013.88;;;1.48;86.56
71735;BME280;59577;52.122;5.406;2023-04-26T04:55:56;102016.56;;;1.54;86.15
71735;BME280;59577;52.122;5.406;2023-04-26T04:58:23;102018.47;;;1.58;86.11
71735;BME280;59577;52.122;5.406;2023-04-26T05:00:50;102023.81;;;1.63;85.85
71735;BME280;59577;52.122;5.406;2023-04-26T05:03:16;102020.63;;;1.66;86.09
71735;BME280;59577;52.122;5.406;2023-04-26T05:05:44;102021.19;;;1.68;85.83
71735;BME280;59577;52.122;5.406;2023-04-26T05:08:10;102023.28;;;1.61;85.58
71735;BME280;59577;52.122;5.406;2023-04-26T05:10:37;102023.56;;;1.65;85.96
71735;BME280;59577;52.122;5.406;2023-04-26T05:13:03;102025.19;;;1.76;86.19
71735;BME280;59577;52.122;5.406;2023-04-26T05:15:31;102030.56;;;1.92;86.33
71735;BME280;59577;52.122;5.406;2023-04-26T05:17:57;102033.03;;;2.14;86.37
71735;BME280;59577;52.122;5.406;2023-04-26T05:20:25;102038.16;;;2.46;86.41
71735;BME280;59577;52.122;5.406;2023-04-26T05:22:51;102029.19;;;3.38;85.29
71735;BME280;59577;52.122;5.406;2023-04-26T05:25:18;102028.41;;;4.66;81.20
71735;BME280;59577;52.122;5.406;2023-04-26T05:27:47;102034.34;;;4.93;79.91
71735;BME280;59577;52.122;5.406;2023-04-26T05:30:16;102034.91;;;6.57;77.75
71735;BME280;59577;52.122;5.406;2023-04-26T05:32:43;102031.47;;;8.18;73.63
71735;BME280;59577;52.122;5.406;2023-04-26T05:35:11;102024.75;;;10.59;67.62
71735;BME280;59577;52.122;5.406;2023-04-26T05:37:38;102030.03;;;11.33;63.74
71735;BME280;59577;52.122;5.406;2023-04-26T05:40:06;102027.41;;;12.50;60.92
71735;BME280;59577;52.122;5.406;2023-04-26T05:42:33;102031.91;;;13.04;58.21
71735;BME280;59577;52.122;5.406;2023-04-26T05:44:59;102031.16;;;13.41;56.38
71735;BME280;59577;52.122;5.406;2023-04-26T05:47:26;102033.16;;;14.37;54.23
71735;BME280;59577;52.122;5.406;2023-04-26T05:49:53;102028.91;;;15.00;52.68
71735;BME280;59577;52.122;5.406;2023-04-26T05:52:19;102029.34;;;16.28;49.70
71735;BME280;59577;52.122;5.406;2023-04-26T05:54:50;102023.25;;;17.27;47.09
71735;BME280;59577;52.122;5.406;2023-04-26T05:57:20;102030.53;;;18.40;44.59
71735;BME280;59577;52.122;5.406;2023-04-26T05:59:46;102028.88;;;19.22;42.66
71735;BME280;59577;52.122;5.406;2023-04-26T06:02:13;102030.72;;;19.69;41.46
71735;BME280;59577;52.122;5.406;2023-04-26T06:04:40;102025.50;;;20.52;39.98
71735;BME280;59577;52.122;5.406;2023-04-26T06:07:07;102024.69;;;21.31;38.59
71735;BME280;59577;52.122;5.406;2023-04-26T06:09:33;102032.28;;;22.08;37.55
71735;BME280;59577;52.122;5.406;2023-04-26T06:12:00;102025.09;;;22.32;36.76
71735;BME280;59577;52.122;5.406;2023-04-26T06:14:27;102028.84;;;21.89;35.77
71735;BME280;59577;52.122;5.406;2023-04-26T06:16:56;102034.09;;;20.25;37.78
71735;BME280;59577;52.122;5.406;2023-04-26T06:19:23;102025.13;;;18.51;38.95
71735;BME280;59577;52.122;5.406;2023-04-26T06:21:49;102033.28;;;16.50;41.70
71735;BME280;59577;52.122;5.406;2023-04-26T06:24:17;102033.25;;;14.85;44.76
71735;BME280;59577;52.122;5.406;2023-04-26T06:26:44;102032.66;;;13.79;47.65
71735;BME280;59577;52.122;5.406;2023-04-26T06:29:11;102046.09;;;13.22;49.18
71735;BME280;59577;52.122;5.406;2023-04-26T06:31:38;102037.00;;;12.81;50.42
71735;BME280;59577;52.122;5.406;2023-04-26T06:34:04;102045.47;;;12.79;52.04
71735;BME280;59577;52.122;5.406;2023-04-26T06:36:32;102043.16;;;13.52;52.10
71735;BME280;59577;52.122;5.406;2023-04-26T06:38:58;102043.03;;;14.14;50.78
71735;BME280;59577;52.122;5.406;2023-04-26T06:41:31;102052.94;;;14.78;50.11
71735;BME280;59577;52.122;5.406;2023-04-26T06:43:57;102058.03;;;14.52;48.36
71735;BME280;59577;52.122;5.406;2023-04-26T06:46:24;102051.09;;;13.57;49.35
71735;BME280;59577;52.122;5.406;2023-04-26T06:48:53;102054.84;;;12.70;51.51
71735;BME280;59577;52.122;5.406;2023-04-26T06:51:24;102066.13;;;12.26;53.05
71735;BME280;59577;52.122;5.406;2023-04-26T06:53:50;102061.44;;;11.93;54.08
71735;BME280;59577;52.122;5.406;2023-04-26T06:56:18;102069.13;;;11.91;54.68
71735;BME280;59577;52.122;5.406;2023-04-26T06:58:59;102064.81;;;12.32;54.94
71735;BME280;59577;52.122;5.406;2023-04-26T07:01:27;102071.19;;;12.49;53.45
71735;BME280;59577;52.122;5.406;2023-04-26T07:03:55;102061.91;;;12.83;52.88
71735;BME280;59577;52.122;5.406;2023-04-26T07:06:25;102067.22;;;12.92;53.34
71735;BME280;59577;52.122;5.406;2023-04-26T07:08:51;102062.00;;;12.87;53.17
71735;BME280;59577;52.122;5.406;2023-04-26T07:11:19;102059.22;;;12.50;53.49
71735;BME280;59577;52.122;5.406;2023-04-26T07:13:48;102063.22;;;12.31;52.99
71735;BME280;59577;52.122;5.406;2023-04-26T07:16:14;102057.41;;;12.20;52.91
71735;BME280;59577;52.122;5.406;2023-04-26T07:18:41;102055.53;;;12.12;53.41
71735;BME280;59577;52.122;5.406;2023-04-26T07:21:08;102055.81;;;11.98;53.60
71735;BME280;59577;52.122;5.406;2023-04-26T07:23:34;102053.47;;;11.88;53.62
71735;BME280;59577;52.122;5.406;2023-04-26T07:26:01;102056.59;;;12.41;54.50
71735;BME280;59577;52.122;5.406;2023-04-26T07:28:30;102039.97;;;14.03;52.44
71735;BME280;59577;52.122;5.406;2023-04-26T07:30:58;102039.72;;;14.08;50.04
71735;BME280;59577;52.122;5.406;2023-04-26T07:33:25;102045.09;;;13.39;50.91
71735;BME280;59577;52.122;5.406;2023-04-26T07:35:53;102053.53;;;13.01;51.26
71735;BME280;59577;52.122;5.406;2023-04-26T07:38:21;102054.81;;;12.57;51.56
71735;BME280;59577;52.122;5.406;2023-04-26T07:40:48;102054.19;;;12.39;52.41
71735;BME280;59577;52.122;5.406;2023-04-26T07:43:39;102060.25;;;12.24;52.78
71735;BME280;59577;52.122;5.406;2023-04-26T07:46:05;102053.56;;;12.00;53.24
71735;BME280;59577;52.122;5.406;2023-04-26T07:48:32;102056.63;;;11.90;54.58
71735;BME280;59577;52.122;5.406;2023-04-26T07:51:09;102058.53;;;11.98;55.54
71735;BME280;59577;52.122;5.406;2023-04-26T07:53:36;102058.53;;;11.98;54.67
71735;BME280;59577;52.122;5.406;2023-04-26T07:56:04;102063.91;;;11.77;54.85
71735;BME280;59577;52.122;5.406;2023-04-26T07:58:31;102067.13;;;11.50;55.36
71735;BME280;59577;52.122;5.406;2023-04-26T08:00:58;102072.56;;;11.41;55.60
71735;BME280;59577;52.122;5.406;2023-04-26T08:03:25;102066.84;;;12.14;59.73
71735;BME280;59577;52.122;5.406;2023-04-26T08:05:55;102063.66;;;13.49;55.21
71735;BME280;59577;52.122;5.406;2023-04-26T08:08:21;102077.50;;;14.38;55.47
71735;BME280;59577;52.122;5.406;2023-04-26T08:10:50;102076.72;;;14.65;54.06
71735;BME280;59577;52.122;5.406;2023-04-26T08:13:16;102065.50;;;14.39;53.14
71735;BME280;59577;52.122;5.406;2023-04-26T08:15:43;102066.09;;;13.91;51.27
71735;BME280;59577;52.122;5.406;2023-04-26T08:18:10;102063.53;;;13.83;51.47
71735;BME280;59577;52.122;5.406;2023-04-26T08:20:37;102061.38;;;13.76;50.51
71735;BME280;59577;52.122;5.406;2023-04-26T08:23:03;102078.06;;;13.50;49.24
71735;BME280;59577;52.122;5.406;2023-04-26T08:25:30;102074.06;;;13.23;50.23
71735;BME280;59577;52.122;5.406;2023-04-26T08:27:57;102078.56;;;12.94;50.44
71735;BME280;59577;52.122;5.406;2023-04-26T08:30:23;102080.41;;;12.56;51.92
71735;BME280;59577;52.122;5.406;2023-04-26T08:32:50;102073.63;;;12.29;51.38
71735;BME280;59577;52.122;5.406;2023-04-26T08:35:28;102073.16;;;12.06;53.09
71735;BME280;59577;52.122;5.406;2023-04-26T08:37:54;102070.25;;;11.81;52.14
71735;BME280;59577;52.122;5.406;2023-04-26T08:40:24;102075.72;;;11.52;52.18
71735;BME280;59577;52.122;5.406;2023-04-26T08:42:57;102067.84;;;11.29;52.19
71735;BME280;59577;52.122;5.406;2023-04-26T08:45:26;102071.41;;;11.12;52.19
71735;BME280;59577;52.122;5.406;2023-04-26T08:47:56;102076.91;;;10.86;52.18
71735;BME280;59577;52.122;5.406;2023-04-26T08:50:24;102073.94;;;10.70;53.54
71735;BME280;59577;52.122;5.406;2023-04-26T08:52:51;102075.38;;;10.59;54.11
71735;BME280;59577;52.122;5.406;2023-04-26T08:55:18;102086.53;;;10.48;54.83
71735;BME280;59577;52.122;5.406;2023-04-26T08:57:46;102084.34;;;10.33;55.19
71735;BME280;59577;52.122;5.406;2023-04-26T09:00:14;102082.38;;;10.16;55.97
71735;BME280;59577;52.122;5.406;2023-04-26T09:02:45;102077.13;;;10.02;56.52
71735;BME280;59577;52.122;5.406;2023-04-26T09:05:13;102073.75;;;9.96;57.52
71735;BME280;59577;52.122;5.406;2023-04-26T09:07:44;102073.91;;;9.91;57.89
71735;BME280;59577;52.122;5.406;2023-04-26T09:10:13;102070.56;;;9.86;58.18
71735;BME280;59577;52.122;5.406;2023-04-26T09:12:40;102069.13;;;9.71;57.83
71735;BME280;59577;52.122;5.406;2023-04-26T09:15:07;102071.63;;;9.58;57.89
71735;BME280;59577;52.122;5.406;2023-04-26T09:17:37;102075.44;;;9.57;58.26
71735;BME280;59577;52.122;5.406;2023-04-26T09:23:08;102061.78;;;9.63;58.41
71735;BME280;59577;52.122;5.406;2023-04-26T09:25:35;102070.84;;;9.67;59.15
71735;BME280;59577;52.122;5.406;2023-04-26T09:28:03;102074.19;;;9.72;59.49
71735;BME280;59577;52.122;5.406;2023-04-26T09:30:37;102075.97;;;9.77;59.46
71735;BME280;59577;52.122;5.406;2023-04-26T09:33:04;102070.41;;;9.82;58.55
71735;BME280;59577;52.122;5.406;2023-04-26T09:35:39;102073.13;;;9.91;59.47
71735;BME280;59577;52.122;5.406;2023-04-26T09:38:11;102069.50;;;10.04;59.64
71735;BME280;59577;52.122;5.406;2023-04-26T09:40:49;102079.06;;;10.19;59.08
71735;BME280;59577;52.122;5.406;2023-04-26T09:43:20;102079.72;;;10.33;59.40
71735;BME280;59577;52.122;5.406;2023-04-26T09:45:54;102081.63;;;10.50;58.61
71735;BME280;59577;52.122;5.406;2023-04-26T09:48:26;102079.66;;;10.68;59.97
71735;BME280;59577;52.122;5.406;2023-04-26T09:50:57;102072.00;;;10.79;57.56
71735;BME280;59577;52.122;5.406;2023-04-26T09:53:29;102078.34;;;10.92;57.09
71735;BME280;59577;52.122;5.406;2023-04-26T09:56:05;102075.94;;;10.99;55.83
71735;BME280;59577;52.122;5.406;2023-04-26T09:58:38;102080.34;;;11.13;55.77
71735;BME280;59577;52.122;5.406;2023-04-26T10:01:07;102076.00;;;11.20;55.32
71735;BME280;59577;52.122;5.406;2023-04-26T10:03:34;102075.66;;;11.31;54.09
71735;BME280;59577;52.122;5.406;2023-04-26T10:06:03;102071.06;;;11.52;54.86
71735;BME280;59577;52.122;5.406;2023-04-26T10:08:30;102072.44;;;11.67;53.50
71735;BME280;59577;52.122;5.406;2023-04-26T10:10:59;102066.44;;;11.82;53.05
71735;BME280;59577;52.122;5.406;2023-04-26T10:13:27;102063.50;;;11.96;51.62
71735;BME280;59577;52.122;5.406;2023-04-26T10:15:54;102054.38;;;11.71;52.08
71735;BME280;59577;52.122;5.406;2023-04-26T10:18:30;102057.31;;;11.87;51.64
71735;BME280;59577;52.122;5.406;2023-04-26T10:21:01;102062.22;;;11.94;52.01
71735;BME280;59577;52.122;5.406;2023-04-26T10:23:31;102062.78;;;12.08;52.02
71735;BME280;59577;52.122;5.406;2023-04-26T10:25:58;102059.31;;;12.20;52.03
71735;BME280;59577;52.122;5.406;2023-04-26T10:31:09;102065.56;;;11.99;50.29
71735;BME280;59577;52.122;5.406;2023-04-26T10:33:37;102069.59;;;11.84;50.31
71735;BME280;59577;52.122;5.406;2023-04-26T10:38:36;102060.00;;;11.36;49.94
71735;BME280;59577;52.122;5.406;2023-04-26T10:44:00;102065.19;;;11.20;51.84
71735;BME280;59577;52.122;5.406;2023-04-26T10:46:49;102061.03;;;11.14;52.44
71735;BME280;59577;52.122;5.406;2023-04-26T10:49:19;102062.00;;;11.18;53.61
71735;BME280;59577;52.122;5.406;2023-04-26T10:52:08;102069.34;;;11.18;53.26
71735;BME280;59577;52.122;5.406;2023-04-26T10:55:09;102058.28;;;11.23;54.08
71735;BME280;59577;52.122;5.406;2023-04-26T10:57:50;102055.06;;;11.29;53.72
71735;BME280;59577;52.122;5.406;2023-04-26T11:00:19;102062.38;;;11.38;52.94
71735;BME280;59577;52.122;5.406;2023-04-26T11:02:55;102061.50;;;11.55;53.80
71735;BME280;59577;52.122;5.406;2023-04-26T11:10:56;102066.94;;;12.06;53.64
71735;BME280;59577;52.122;5.406;2023-04-26T11:13:23;102057.00;;;12.10;52.65
71735;BME280;59577;52.122;5.406;2023-04-26T11:15:53;102056.19;;;12.09;51.26
71735;BME280;59577;52.122;5.406;2023-04-26T11:18:25;102054.81;;;12.03;50.65
71735;BME280;59577;52.122;5.406;2023-04-26T11:20:51;102046.50;;;12.08;50.48
71735;BME280;59577;52.122;5.406;2023-04-26T11:23:18;102047.53;;;12.16;52.27
71735;BME280;59577;52.122;5.406;2023-04-26T11:25:48;102042.97;;;12.29;51.80
71735;BME280;59577;52.122;5.406;2023-04-26T11:28:17;102040.38;;;12.32;51.45
71735;BME280;59577;52.122;5.406;2023-04-26T11:30:44;102048.88;;;12.43;53.06
71735;BME280;59577;52.122;5.406;2023-04-26T11:33:18;102038.06;;;12.55;52.17
71735;BME280;59577;52.122;5.406;2023-04-26T11:35:45;102033.75;;;12.54;51.82
71735;BME280;59577;52.122;5.406;2023-04-26T11:38:13;102042.81;;;12.46;49.37
71735;BME280;59577;52.122;5.406;2023-04-26T11:40:41;102038.81;;;12.44;49.24
71735;BME280;59577;52.122;5.406;2023-04-26T11:43:08;102038.94;;;12.14;48.08
71735;BME280;59577;52.122;5.406;2023-04-26T11:45:36;102038.66;;;12.28;48.97
71735;BME280;59577;52.122;5.406;2023-04-26T11:48:07;102040.63;;;12.39;48.64
71735;BME280;59577;52.122;5.406;2023-04-26T11:50:36;102036.19;;;12.35;49.65
71735;BME280;59577;52.122;5.406;2023-04-26T11:53:05;102036.16;;;12.68;49.20
71735;BME280;59577;52.122;5.406;2023-04-26T11:55:32;102044.50;;;12.96;48.40
71735;BME280;59577;52.122;5.406;2023-04-26T11:58:01;102036.81;;;13.35;46.87
71735;BME280;59577;52.122;5.406;2023-04-26T12:00:34;102039.50;;;12.98;44.82
71735;BME280;59577;52.122;5.406;2023-04-26T12:03:05;102027.50;;;13.00;45.10
71735;BME280;59577;52.122;5.406;2023-04-26T12:05:35;102026.34;;;12.88;46.33
71735;BME280;59577;52.122;5.406;2023-04-26T12:08:03;102038.09;;;12.80;44.12
71735;BME280;59577;52.122;5.406;2023-04-26T12:10:34;102032.03;;;12.37;44.63
71735;BME280;59577;52.122;5.406;2023-04-26T12:13:01;102038.44;;;12.33;46.61
71735;BME280;59577;52.122;5.406;2023-04-26T12:15:32;102040.28;;;12.41;47.21
71735;BME280;59577;52.122;5.406;2023-04-26T12:18:05;102035.31;;;12.43;46.51
71735;BME280;59577;52.122;5.406;2023-04-26T12:20:36;102038.91;;;12.35;47.11
71735;BME280;59577;52.122;5.406;2023-04-26T12:23:06;102040.44;;;12.23;48.53
71735;BME280;59577;52.122;5.406;2023-04-26T12:25:38;102033.69;;;12.09;48.87
71735;BME280;59577;52.122;5.406;2023-04-26T12:28:21;102047.09;;;11.93;49.39
71735;BME280;59577;52.122;5.406;2023-04-26T12:30:48;102045.66;;;11.86;49.41
71735;BME280;59577;52.122;5.406;2023-04-26T12:33:15;102047.63;;;11.77;50.33
71735;BME280;59577;52.122;5.406;2023-04-26T12:35:45;102045.78;;;11.69;50.14
71735;BME280;59577;52.122;5.406;2023-04-26T12:38:12;102050.28;;;11.65;49.75
71735;BME280;59577;52.122;5.406;2023-04-26T12:40:41;102041.06;;;11.57;50.58
71735;BME280;59577;52.122;5.406;2023-04-26T12:43:08;102042.38;;;11.51;50.54
71735;BME280;59577;52.122;5.406;2023-04-26T12:45:35;102047.22;;;11.37;50.20
71735;BME280;59577;52.122;5.406;2023-04-26T12:48:01;102048.69;;;11.34;52.18
71735;BME280;59577;52.122;5.406;2023-04-26T12:50:28;102049.63;;;11.38;52.17
71735;BME280;59577;52.122;5.406;2023-04-26T12:52:55;102043.22;;;11.43;52.17
71735;BME280;59577;52.122;5.406;2023-04-26T12:55:21;102042.63;;;11.37;51.12
71735;BME280;59577;52.122;5.406;2023-04-26T12:57:48;102040.66;;;11.46;52.06
71735;BME280;59577;52.122;5.406;2023-04-26T13:00:15;102036.25;;;11.63;51.88
71735;BME280;59577;52.122;5.406;2023-04-26T13:02:43;102036.97;;;11.72;51.37
71735;BME280;59577;52.122;5.406;2023-04-26T13:05:10;102040.34;;;11.90;51.71
71735;BME280;59577;52.122;5.406;2023-04-26T13:07:39;102037.69;;;12.11;52.49
71735;BME280;59577;52.122;5.406;2023-04-26T13:10:06;102042.63;;;12.09;49.86
71735;BME280;59577;52.122;5.406;2023-04-26T13:12:36;102046.22;;;11.71;49.87
71735;BME280;59577;52.122;5.406;2023-04-26T13:15:07;102044.41;;;11.84;50.89
71735;BME280;59577;52.122;5.406;2023-04-26T13:17:36;102044.88;;;12.07;52.71